EGQL/ADX METAR and TAF weather

Enter ICAO airport designator
Station Type Date Time Source
EGQL METAR 2020/11/28 19:50 UTC NOAA

EGQL 281950Z 29002KT 9999 FEW036 M02/M02 Q1024 RMK BLU


Station Type Date Time Source
EGQL Decoded METAR 2020/11/28 19:50 UTC NOAA

Leuchars, United Kingdom (EGQL) 56-23N 002-52W 0M
Nov 28, 2020 - 02:50 PM EST / 2020.11.28 1950 UTC
Wind: from the WNW (290 degrees) at 2 MPH (2 KT):0
Visibility: greater than 7 mile(s):0
Sky conditions: mostly clear
Temperature: 28 F (-2 C)
Dew Point: 28 F (-2 C)
Relative Humidity: 100%
Pressure (altimeter): 30.24 in. Hg (1024 hPa)
ob: EGQL 281950Z 29002KT 9999 FEW036 M02/M02 Q1024 RMK BLU
cycle: 20

Station Type Date Time Source
EGQL TAF 2011/07/27 06:03 UTC NOAA

TAF TAF
AMD EGQL 270424Z 2706/2724 14005KT 9999 BKN020 PROB30
TEMPO 2706/2708 SCT012
BECMG 2708/2710 SCT025

Example: see airport list